Time;durP1;ratioP1;P1;durP2;ratioP2;P2;SDS_P1;SDS_P2;PMS_P1;PMS_P2;Temp;Humidity;BMP_temperature;BMP_pressure;BME280_temperature;BME280_humidity;BME280_pressure;Samples;Min_cycle;Max_cycle;Signal;HPM_P1;HPM_P2
2023/03/16 00:00:42;;;;;;;3.55;2.60;;;;;;;;;;5095473;28;20189;-65
2023/03/16 00:03:11;;;;;;;2.45;2.22;;;;;;;;;;5095541;28;20583;-65
2023/03/16 00:05:37;;;;;;;2.97;2.08;;;;;;;;;;5094669;28;20622;-66
2023/03/16 00:08:05;;;;;;;6.90;2.42;;;;;;;;;;5094674;28;20679;-65
2023/03/16 00:10:32;;;;;;;4.40;2.10;;;;;;;;;;5095350;28;20282;-66
2023/03/16 00:12:58;;;;;;;6.03;2.47;;;;;;;;;;5095207;28;20231;-65
2023/03/16 00:15:25;;;;;;;4.05;2.35;;;;;;;;;;5095330;28;20275;-65
2023/03/16 00:17:53;;;;;;;5.20;2.30;;;;;;;;;;5095017;28;20222;-65
2023/03/16 00:20:22;;;;;;;5.00;2.13;;;;;;;;;;5094959;28;20189;-65
2023/03/16 00:22:50;;;;;;;3.67;2.00;;;;;;;;;;5095264;28;20583;-65
2023/03/16 00:25:18;;;;;;;5.30;2.30;;;;;;;;;;5095129;28;20228;-65
2023/03/16 00:27:45;;;;;;;3.90;2.42;;;;;;;;;;5095032;28;20202;-65
2023/03/16 00:30:12;;;;;;;5.90;2.05;;;;;;;;;;5094751;28;20199;-66
2023/03/16 00:32:40;;;;;;;2.90;2.10;;;;;;;;;;5094797;28;20655;-65
2023/03/16 00:35:07;;;;;;;3.08;2.08;;;;;;;;;;5095067;28;20288;-65
2023/03/16 00:37:36;;;;;;;4.63;2.08;;;;;;;;;;5095200;28;20765;-65
2023/03/16 00:40:06;;;;;;;4.70;1.70;;;;;;;;;;5095223;28;20192;-65
2023/03/16 00:42:33;;;;;;;2.72;1.85;;;;;;;;;;5095272;28;20599;-65
2023/03/16 00:45:00;;;;;;;4.85;2.58;;;;;;;;;;5095125;28;20239;-65
2023/03/16 00:47:28;;;;;;;1.95;1.75;;;;;;;;;;5094975;28;20194;-65
2023/03/16 00:49:55;;;;;;;4.97;1.88;;;;;;;;;;5095096;28;20196;-65
2023/03/16 00:52:23;;;;;;;3.15;2.20;;;;;;;;;;5095064;28;20287;-66
2023/03/16 00:54:52;;;;;;;8.00;2.35;;;;;;;;;;5094856;28;20660;-65
2023/03/16 00:57:20;;;;;;;3.38;1.67;;;;;;;;;;5094893;28;20677;-65
2023/03/16 00:59:47;;;;;;;4.85;2.13;;;;;;;;;;5094794;28;20207;-65
2023/03/16 01:02:15;;;;;;;2.75;2.10;;;;;;;;;;5094616;28;20581;-65
2023/03/16 01:04:42;;;;;;;2.78;2.35;;;;;;;;;;5094916;28;20203;-65
2023/03/16 01:07:11;;;;;;;2.55;1.92;;;;;;;;;;5094824;28;20249;-65
2023/03/16 01:09:38;;;;;;;2.83;2.00;;;;;;;;;;5094591;28;20555;-65
2023/03/16 01:12:07;;;;;;;3.97;2.17;;;;;;;;;;5094611;28;20192;-66
2023/03/16 01:14:34;;;;;;;2.60;1.80;;;;;;;;;;5094406;28;20220;-66
2023/03/16 01:17:02;;;;;;;1.60;1.50;;;;;;;;;;5094153;28;20221;-65
2023/03/16 01:19:28;;;;;;;3.13;1.85;;;;;;;;;;5094487;28;20276;-65
2023/03/16 01:21:56;;;;;;;3.45;1.83;;;;;;;;;;5094500;28;20296;-65
2023/03/16 01:24:23;;;;;;;4.40;2.00;;;;;;;;;;5094389;28;20280;-65
2023/03/16 01:26:51;;;;;;;2.42;1.85;;;;;;;;;;5094270;28;20200;-65
2023/03/16 01:29:19;;;;;;;5.15;2.33;;;;;;;;;;5094112;28;20192;-66
2023/03/16 01:31:47;;;;;;;2.88;2.15;;;;;;;;;;5094153;28;20656;-65
2023/03/16 01:34:16;;;;;;;7.18;2.60;;;;;;;;;;5094257;28;20188;-65
2023/03/16 01:36:44;;;;;;;7.05;1.88;;;;;;;;;;5094226;28;20560;-65
2023/03/16 01:39:11;;;;;;;3.30;2.30;;;;;;;;;;5094122;28;20192;-65
2023/03/16 01:41:38;;;;;;;5.88;1.90;;;;;;;;;;5093754;28;20228;-66
2023/03/16 01:44:05;;;;;;;2.90;1.95;;;;;;;;;;5094163;28;20192;-65
2023/03/16 01:46:33;;;;;;;4.55;2.60;;;;;;;;;;5093979;28;20208;-65
2023/03/16 01:49:04;;;;;;;3.38;1.63;;;;;;;;;;5094116;28;20192;-65
2023/03/16 01:51:34;;;;;;;3.72;2.40;;;;;;;;;;5093889;28;20196;-65
2023/03/16 01:54:03;;;;;;;3.38;1.80;;;;;;;;;;5093996;28;20234;-66
2023/03/16 01:56:34;;;;;;;2.42;1.50;;;;;;;;;;5093698;28;20203;-65
2023/03/16 01:59:02;;;;;;;2.60;1.90;;;;;;;;;;5093703;28;20667;-66
2023/03/16 02:01:29;;;;;;;4.85;2.20;;;;;;;;;;5093595;28;20238;-65
2023/03/16 02:04:00;;;;;;;9.68;2.10;;;;;;;;;;5093730;28;20549;-65
2023/03/16 02:06:27;;;;;;;4.40;1.77;;;;;;;;;;5093599;28;20196;-66
2023/03/16 02:08:56;;;;;;;6.00;2.00;;;;;;;;;;5093544;28;20283;-65
2023/03/16 02:11:24;;;;;;;2.20;1.95;;;;;;;;;;5093511;28;20206;-66
2023/03/16 02:13:51;;;;;;;4.63;2.00;;;;;;;;;;5093574;28;20201;-66
2023/03/16 02:16:21;;;;;;;2.80;1.90;;;;;;;;;;5093531;28;20191;-65
2023/03/16 02:18:48;;;;;;;3.67;1.85;;;;;;;;;;5093636;28;20283;-65
2023/03/16 02:21:19;;;;;;;4.07;1.67;;;;;;;;;;5093209;28;20196;-65
2023/03/16 02:23:46;;;;;;;2.05;1.85;;;;;;;;;;5093402;28;20560;-65
2023/03/16 02:26:17;;;;;;;4.53;2.33;;;;;;;;;;5093390;28;20191;-65
2023/03/16 02:28:47;;;;;;;7.15;1.95;;;;;;;;;;5092797;28;20192;-65
2023/03/16 02:31:16;;;;;;;6.00;2.50;;;;;;;;;;5092901;28;20188;-65
2023/03/16 02:33:43;;;;;;;1.70;1.60;;;;;;;;;;5093590;28;20547;-65
2023/03/16 02:36:10;;;;;;;3.25;2.00;;;;;;;;;;5093336;28;20188;-65
2023/03/16 02:38:37;;;;;;;2.47;1.70;;;;;;;;;;5093218;28;20204;-65
2023/03/16 02:41:11;;;;;;;4.32;1.70;;;;;;;;;;5093081;28;20198;-66
2023/03/16 02:43:40;;;;;;;2.35;2.05;;;;;;;;;;5093007;28;20216;-65
2023/03/16 02:46:07;;;;;;;4.45;2.08;;;;;;;;;;5092904;28;20278;-65
2023/03/16 02:48:42;;;;;;;4.13;1.75;;;;;;;;;;5092898;28;20210;-66
2023/03/16 02:51:09;;;;;;;6.00;1.80;;;;;;;;;;5093039;28;20190;-65
2023/03/16 02:53:36;;;;;;;4.25;2.70;;;;;;;;;;5093086;28;20196;-65
2023/03/16 02:56:04;;;;;;;4.45;1.80;;;;;;;;;;5092955;28;20555;-65
2023/03/16 02:58:31;;;;;;;2.75;1.83;;;;;;;;;;5092959;28;20276;-65
2023/03/16 03:00:58;;;;;;;3.45;1.85;;;;;;;;;;5092705;28;20548;-65
2023/03/16 03:03:25;;;;;;;6.47;2.15;;;;;;;;;;5092971;28;20219;-65
2023/03/16 03:05:53;;;;;;;3.75;2.13;;;;;;;;;;5092932;28;20625;-65
2023/03/16 03:08:22;;;;;;;7.40;1.73;;;;;;;;;;5092849;28;20287;-66
2023/03/16 03:10:49;;;;;;;4.03;2.10;;;;;;;;;;5092735;28;20190;-66
2023/03/16 03:13:16;;;;;;;3.55;1.80;;;;;;;;;;5092654;28;20191;-66
2023/03/16 03:15:43;;;;;;;4.18;1.85;;;;;;;;;;5092899;28;20198;-66
2023/03/16 03:18:10;;;;;;;2.70;2.50;;;;;;;;;;5092632;28;20224;-65
2023/03/16 03:20:37;;;;;;;3.97;2.38;;;;;;;;;;5092721;28;20246;-65
2023/03/16 03:23:05;;;;;;;2.33;2.00;;;;;;;;;;5092700;28;20310;-65
2023/03/16 03:25:33;;;;;;;3.10;2.53;;;;;;;;;;5092591;28;20669;-65
2023/03/16 03:28:00;;;;;;;4.65;1.95;;;;;;;;;;5092660;28;20546;-66
2023/03/16 03:30:27;;;;;;;4.63;1.67;;;;;;;;;;5092764;28;20605;-65
2023/03/16 03:32:54;;;;;;;4.30;1.90;;;;;;;;;;5092703;28;20200;-65
2023/03/16 03:35:21;;;;;;;6.85;2.10;;;;;;;;;;5092488;28;20655;-65
2023/03/16 03:37:49;;;;;;;2.83;1.60;;;;;;;;;;5092572;28;20210;-65
2023/03/16 03:40:18;;;;;;;4.70;2.10;;;;;;;;;;5092727;28;20195;-65
2023/03/16 03:42:45;;;;;;;4.95;2.10;;;;;;;;;;5096507;28;20219;-66
2023/03/16 03:45:13;;;;;;;7.65;2.30;;;;;;;;;;5096217;28;20660;-65
2023/03/16 03:47:40;;;;;;;4.88;2.53;;;;;;;;;;5096356;28;20189;-65
2023/03/16 03:50:07;;;;;;;4.90;2.20;;;;;;;;;;5096273;28;20680;-65
2023/03/16 03:52:34;;;;;;;3.58;2.05;;;;;;;;;;5096141;28;20198;-66
2023/03/16 03:55:01;;;;;;;4.43;2.10;;;;;;;;;;5095968;28;20219;-65
2023/03/16 03:57:29;;;;;;;3.05;1.77;;;;;;;;;;5096260;28;20284;-65
2023/03/16 03:59:56;;;;;;;5.35;2.00;;;;;;;;;;5096034;28;20286;-65
2023/03/16 04:02:23;;;;;;;4.50;1.77;;;;;;;;;;5095969;28;20220;-65
2023/03/16 04:04:50;;;;;;;3.25;1.92;;;;;;;;;;5095938;28;20191;-65
2023/03/16 04:07:17;;;;;;;4.25;2.38;;;;;;;;;;5095801;28;20203;-66
2023/03/16 04:09:44;;;;;;;3.42;1.92;;;;;;;;;;5095737;28;20627;-66
2023/03/16 04:12:11;;;;;;;4.65;2.42;;;;;;;;;;5095983;28;20192;-65
2023/03/16 04:14:39;;;;;;;2.28;2.00;;;;;;;;;;5096083;28;20310;-66
2023/03/16 04:17:06;;;;;;;5.72;2.28;;;;;;;;;;5095921;28;20315;-66
2023/03/16 04:19:33;;;;;;;2.80;1.73;;;;;;;;;;5095931;28;20195;-65
2023/03/16 04:22:00;;;;;;;5.43;2.10;;;;;;;;;;5095612;28;20191;-66
2023/03/16 04:24:27;;;;;;;6.85;2.60;;;;;;;;;;5095577;28;20578;-66
2023/03/16 04:26:54;;;;;;;3.45;2.10;;;;;;;;;;5095642;28;20292;-66
2023/03/16 04:29:21;;;;;;;3.33;2.03;;;;;;;;;;5095412;28;20198;-66
2023/03/16 04:31:52;;;;;;;6.15;2.72;;;;;;;;;;5095381;28;20189;-65
2023/03/16 04:34:23;;;;;;;5.13;3.28;;;;;;;;;;5095368;28;20196;-66
2023/03/16 04:36:50;;;;;;;6.20;2.80;;;;;;;;;;5095211;28;20540;-66
2023/03/16 04:39:17;;;;;;;5.80;3.78;;;;;;;;;;5095296;28;20195;-66
2023/03/16 04:41:45;;;;;;;3.75;2.40;;;;;;;;;;5095296;28;20223;-65
2023/03/16 04:44:12;;;;;;;8.52;2.40;;;;;;;;;;5095108;28;20535;-66
2023/03/16 04:46:39;;;;;;;6.78;1.92;;;;;;;;;;5095134;28;20191;-66
2023/03/16 04:49:08;;;;;;;5.07;2.67;;;;;;;;;;5094970;28;20283;-65
2023/03/16 04:51:36;;;;;;;3.67;2.40;;;;;;;;;;5094775;28;20743;-66
2023/03/16 04:54:03;;;;;;;6.47;2.42;;;;;;;;;;5094721;28;20210;-66
2023/03/16 04:56:30;;;;;;;5.65;2.03;;;;;;;;;;5095048;28;20187;-66
2023/03/16 04:58:57;;;;;;;2.85;2.15;;;;;;;;;;5094888;28;20193;-65
2023/03/16 05:01:24;;;;;;;5.32;2.40;;;;;;;;;;5094610;28;20223;-65
2023/03/16 05:03:51;;;;;;;6.10;2.60;;;;;;;;;;5094672;28;20686;-66
2023/03/16 05:06:19;;;;;;;5.15;2.13;;;;;;;;;;5094666;28;20691;-65
2023/03/16 05:08:47;;;;;;;4.53;2.75;;;;;;;;;;5094829;28;20275;-66
2023/03/16 05:11:14;;;;;;;5.95;2.50;;;;;;;;;;5094480;28;20673;-65
2023/03/16 05:13:41;;;;;;;2.97;2.70;;;;;;;;;;5094601;28;20286;-66
2023/03/16 05:16:08;;;;;;;4.97;1.77;;;;;;;;;;5094481;28;20192;-65
2023/03/16 05:18:35;;;;;;;6.05;1.80;;;;;;;;;;5094563;28;20235;-66
2023/03/16 05:21:02;;;;;;;4.20;2.17;;;;;;;;;;5094583;28;20653;-65
2023/03/16 05:23:30;;;;;;;5.32;1.80;;;;;;;;;;5094330;28;20301;-66
2023/03/16 05:25:59;;;;;;;5.97;2.22;;;;;;;;;;5094398;28;20218;-65
2023/03/16 05:28:26;;;;;;;5.13;2.83;;;;;;;;;;5094551;28;20284;-65
2023/03/16 05:30:53;;;;;;;2.50;1.88;;;;;;;;;;5094083;28;20286;-65
2023/03/16 05:33:21;;;;;;;4.82;2.58;;;;;;;;;;5094113;28;20784;-65
2023/03/16 05:35:48;;;;;;;3.95;2.65;;;;;;;;;;5094284;28;20191;-65
2023/03/16 05:38:15;;;;;;;5.60;3.33;;;;;;;;;;5094189;28;20248;-65
2023/03/16 05:40:43;;;;;;;2.50;2.20;;;;;;;;;;5093940;28;20195;-65
2023/03/16 05:43:10;;;;;;;4.03;2.78;;;;;;;;;;5093894;28;20219;-65
2023/03/16 05:45:37;;;;;;;2.75;2.55;;;;;;;;;;5093866;28;20191;-66
2023/03/16 05:48:05;;;;;;;4.63;2.55;;;;;;;;;;5094022;28;20625;-66
2023/03/16 05:50:32;;;;;;;5.80;2.50;;;;;;;;;;5093784;28;20192;-66
2023/03/16 05:52:58;;;;;;;5.05;2.40;;;;;;;;;;5093655;28;20234;-65
2023/03/16 05:55:25;;;;;;;4.30;2.83;;;;;;;;;;5093815;28;20187;-66
2023/03/16 05:57:54;;;;;;;7.78;3.85;;;;;;;;;;5093640;28;20610;-66
2023/03/16 06:00:22;;;;;;;3.95;2.72;;;;;;;;;;5093796;28;20189;-65
2023/03/16 06:02:50;;;;;;;2.75;2.33;;;;;;;;;;5093611;28;20196;-66
2023/03/16 06:05:18;;;;;;;4.85;2.35;;;;;;;;;;5093605;28;20188;-66
2023/03/16 06:07:45;;;;;;;4.35;1.80;;;;;;;;;;5093641;28;20522;-66
2023/03/16 06:10:13;;;;;;;5.32;2.65;;;;;;;;;;5093382;28;20219;-66
2023/03/16 06:12:40;;;;;;;9.43;3.22;;;;;;;;;;5093683;28;20199;-66
2023/03/16 06:15:10;;;;;;;11.25;3.90;;;;;;;;;;5093761;28;20192;-66
2023/03/16 06:17:37;;;;;;;7.75;2.35;;;;;;;;;;5093506;28;20221;-66
2023/03/16 06:20:10;;;;;;;10.02;2.80;;;;;;;;;;5093375;28;20199;-66
2023/03/16 06:22:37;;;;;;;3.70;2.00;;;;;;;;;;5093326;28;20189;-66
2023/03/16 06:25:04;;;;;;;3.17;2.72;;;;;;;;;;5093114;28;20234;-66
2023/03/16 06:27:31;;;;;;;12.60;4.85;;;;;;;;;;5093227;28;20185;-66
2023/03/16 06:29:58;;;;;;;4.63;2.28;;;;;;;;;;5093286;28;20195;-66
2023/03/16 06:32:26;;;;;;;3.13;2.80;;;;;;;;;;5093269;28;20184;-66
2023/03/16 06:34:53;;;;;;;5.18;2.25;;;;;;;;;;5093226;28;20393;-66
2023/03/16 06:37:20;;;;;;;3.50;2.10;;;;;;;;;;5092943;28;20280;-66
2023/03/16 06:39:47;;;;;;;7.43;2.77;;;;;;;;;;5093226;28;20195;-66
2023/03/16 06:42:14;;;;;;;6.25;2.80;;;;;;;;;;5092989;28;21023;-66
2023/03/16 06:44:41;;;;;;;9.27;3.25;;;;;;;;;;5092939;28;20221;-66
2023/03/16 06:47:09;;;;;;;7.50;2.88;;;;;;;;;;5093006;28;20568;-65
2023/03/16 06:49:37;;;;;;;3.70;2.60;;;;;;;;;;5092754;28;20265;-65
2023/03/16 06:52:04;;;;;;;8.10;2.83;;;;;;;;;;5092809;28;20254;-65
2023/03/16 06:54:34;;;;;;;3.35;2.63;;;;;;;;;;5092979;28;20476;-65
2023/03/16 06:57:01;;;;;;;5.75;3.67;;;;;;;;;;5092949;28;20601;-65
2023/03/16 06:59:28;;;;;;;11.82;3.47;;;;;;;;;;5092840;28;20185;-65
2023/03/16 07:01:55;;;;;;;3.90;3.20;;;;;;;;;;5092847;28;20189;-65
2023/03/16 07:04:22;;;;;;;5.20;3.20;;;;;;;;;;5092644;28;20216;-65
2023/03/16 07:06:50;;;;;;;6.30;3.05;;;;;;;;;;5092639;28;20283;-65
2023/03/16 07:09:17;;;;;;;6.63;3.50;;;;;;;;;;5092841;28;20205;-65
2023/03/16 07:11:44;;;;;;;6.97;3.60;;;;;;;;;;5092759;28;20201;-65
2023/03/16 07:14:11;;;;;;;7.93;3.92;;;;;;;;;;5092763;28;20283;-65
2023/03/16 07:16:38;;;;;;;8.83;4.13;;;;;;;;;;5095252;28;20543;-65
2023/03/16 07:19:05;;;;;;;11.45;6.22;;;;;;;;;;5096988;28;20457;-65
2023/03/16 07:21:38;;;;;;;7.57;5.15;;;;;;;;;;5096847;28;20262;-65
2023/03/16 07:24:06;;;;;;;9.57;3.92;;;;;;;;;;5096791;28;20217;-65
2023/03/16 07:26:33;;;;;;;8.82;5.35;;;;;;;;;;5096717;28;20196;-65
2023/03/16 07:29:00;;;;;;;5.60;4.10;;;;;;;;;;5096536;28;20195;-65
2023/03/16 07:31:27;;;;;;;7.45;4.15;;;;;;;;;;5096280;28;20708;-65
2023/03/16 07:33:54;;;;;;;5.20;3.10;;;;;;;;;;5096426;28;20224;-65
2023/03/16 07:36:21;;;;;;;7.32;3.97;;;;;;;;;;5096368;28;20670;-65
2023/03/16 07:38:48;;;;;;;8.63;3.88;;;;;;;;;;5096473;28;20280;-65
2023/03/16 07:41:16;;;;;;;9.07;3.70;;;;;;;;;;5096548;28;20193;-65
2023/03/16 07:43:44;;;;;;;6.15;2.45;;;;;;;;;;5096110;28;20303;-65
2023/03/16 07:46:12;;;;;;;5.60;2.70;;;;;;;;;;5096037;28;20189;-66
2023/03/16 07:48:39;;;;;;;8.40;3.90;;;;;;;;;;5096463;28;20185;-65
2023/03/16 07:51:06;;;;;;;6.05;3.53;;;;;;;;;;5095952;28;20682;-66
2023/03/16 07:53:34;;;;;;;4.63;3.08;;;;;;;;;;5096178;28;20193;-65
2023/03/16 07:56:01;;;;;;;2.70;2.40;;;;;;;;;;5096082;28;20192;-65
2023/03/16 07:58:29;;;;;;;10.07;3.60;;;;;;;;;;5095996;28;20458;-65
2023/03/16 08:00:57;;;;;;;4.57;2.58;;;;;;;;;;5095673;28;20451;-65
2023/03/16 08:03:24;;;;;;;6.10;2.95;;;;;;;;;;5095797;28;20288;-66
2023/03/16 08:05:51;;;;;;;4.40;2.53;;;;;;;;;;5096093;28;20225;-65
2023/03/16 08:08:19;;;;;;;4.17;2.70;;;;;;;;;;5096070;28;20189;-66
2023/03/16 08:10:47;;;;;;;5.80;2.43;;;;;;;;;;5095633;28;20451;-65
2023/03/16 08:13:14;;;;;;;2.67;2.43;;;;;;;;;;5096114;28;20878;-65
2023/03/16 08:15:46;;;;;;;4.50;3.33;;;;;;;;;;5096073;28;20502;-66
2023/03/16 08:18:13;;;;;;;4.07;3.10;;;;;;;;;;5095622;28;20481;-66
2023/03/16 08:20:40;;;;;;;6.77;2.63;;;;;;;;;;5095589;28;20192;-66
2023/03/16 08:23:07;;;;;;;9.40;3.08;;;;;;;;;;5095580;28;20447;-65
2023/03/16 08:25:34;;;;;;;6.40;2.87;;;;;;;;;;5095353;28;20231;-66
2023/03/16 08:28:01;;;;;;;16.97;3.77;;;;;;;;;;5094073;28;20537;-66
2023/03/16 08:30:29;;;;;;;6.33;3.83;;;;;;;;;;5095359;28;20477;-65
2023/03/16 08:32:57;;;;;;;4.93;2.40;;;;;;;;;;5095431;28;20462;-66
2023/03/16 08:35:26;;;;;;;7.00;3.33;;;;;;;;;;5095305;28;20504;-66
2023/03/16 08:37:53;;;;;;;5.10;2.43;;;;;;;;;;5095142;28;20496;-66
2023/03/16 08:40:21;;;;;;;5.80;3.37;;;;;;;;;;5094891;28;20447;-65
2023/03/16 08:42:49;;;;;;;10.53;2.80;;;;;;;;;;5095197;28;20989;-65
2023/03/16 08:45:16;;;;;;;4.03;2.60;;;;;;;;;;5094918;28;20489;-65
2023/03/16 08:47:43;;;;;;;3.00;1.83;;;;;;;;;;5094862;28;20825;-65
2023/03/16 08:50:12;;;;;;;4.10;1.90;;;;;;;;;;5094851;28;20470;-66
2023/03/16 08:52:40;;;;;;;3.83;2.17;;;;;;;;;;5094820;28;20814;-66
2023/03/16 08:55:09;;;;;;;4.03;2.77;;;;;;;;;;5094663;28;20447;-65
2023/03/16 08:57:37;;;;;;;3.37;2.03;;;;;;;;;;5094866;28;20447;-65
2023/03/16 09:00:11;;;;;;;3.70;1.80;;;;;;;;;;5094675;28;20485;-65
2023/03/16 09:02:39;;;;;;;6.73;2.53;;;;;;;;;;5094710;28;20471;-66
2023/03/16 09:05:07;;;;;;;3.07;2.10;;;;;;;;;;5094452;28;20474;-65
2023/03/16 09:07:35;;;;;;;7.23;2.23;;;;;;;;;;5094399;28;20537;-65
2023/03/16 09:10:04;;;;;;;3.33;2.20;;;;;;;;;;5094516;28;20541;-65
2023/03/16 09:12:31;;;;;;;6.63;2.40;;;;;;;;;;5094511;28;20454;-65
2023/03/16 09:14:58;;;;;;;6.13;2.30;;;;;;;;;;5094361;28;20949;-65
2023/03/16 09:17:25;;;;;;;2.53;1.80;;;;;;;;;;5094157;28;20981;-66
2023/03/16 09:19:52;;;;;;;3.33;1.90;;;;;;;;;;5094162;28;20934;-66
2023/03/16 09:22:19;;;;;;;2.43;2.03;;;;;;;;;;5094776;28;20443;-65
2023/03/16 09:24:48;;;;;;;5.33;1.60;;;;;;;;;;5094537;28;20482;-65
2023/03/16 09:27:15;;;;;;;3.83;1.43;;;;;;;;;;5094260;28;20447;-65
2023/03/16 09:29:42;;;;;;;5.13;1.77;;;;;;;;;;5094135;28;20546;-65
2023/03/16 09:32:10;;;;;;;6.10;1.57;;;;;;;;;;5093925;28;20477;-66
2023/03/16 09:34:38;;;;;;;3.10;1.40;;;;;;;;;;5093906;28;20455;-65
2023/03/16 09:37:05;;;;;;;3.80;1.33;;;;;;;;;;5094073;28;20545;-65
2023/03/16 09:39:32;;;;;;;4.33;1.53;;;;;;;;;;5094103;28;20462;-66
2023/03/16 09:42:04;;;;;;;7.13;1.50;;;;;;;;;;5093991;28;20449;-66
2023/03/16 09:44:37;;;;;;;3.40;1.67;;;;;;;;;;5094060;28;20471;-65
2023/03/16 09:47:05;;;;;;;3.00;1.43;;;;;;;;;;5093397;28;20455;-66
2023/03/16 09:49:35;;;;;;;1.30;1.00;;;;;;;;;;5093403;28;20532;-66
2023/03/16 09:52:09;;;;;;;4.30;1.40;;;;;;;;;;5093370;28;20454;-69
2023/03/16 09:54:38;;;;;;;10.70;3.20;;;;;;;;;;5093349;28;20455;-74
2023/03/16 09:57:12;;;;;;;6.73;1.77;;;;;;;;;;5093275;28;20457;-82
2023/03/16 09:59:39;;;;;;;3.97;1.33;;;;;;;;;;5093042;28;20451;-69
2023/03/16 10:02:17;;;;;;;4.17;1.57;;;;;;;;;;5093281;28;20534;-68
2023/03/16 10:04:49;;;;;;;3.93;1.47;;;;;;;;;;5093211;28;20532;-66
2023/03/16 10:07:21;;;;;;;5.30;1.47;;;;;;;;;;5093069;28;20455;-74
2023/03/16 10:09:50;;;;;;;2.80;1.50;;;;;;;;;;5092999;28;20447;-71
2023/03/16 10:12:19;;;;;;;7.87;2.40;;;;;;;;;;5092781;28;20542;-68
2023/03/16 10:14:50;;;;;;;1.53;1.17;;;;;;;;;;5093063;28;20786;-70
2023/03/16 10:17:18;;;;;;;3.60;1.20;;;;;;;;;;5093142;28;20473;-71
2023/03/16 10:19:48;;;;;;;3.57;1.93;;;;;;;;;;5092917;28;20533;-72
2023/03/16 10:22:20;;;;;;;3.73;1.30;;;;;;;;;;5092937;28;20805;-70
2023/03/16 10:24:53;;;;;;;5.60;1.40;;;;;;;;;;5092880;28;20573;-66
2023/03/16 10:27:26;;;;;;;4.20;1.53;;;;;;;;;;5092891;28;20451;-61
2023/03/16 10:29:52;;;;;;;3.13;1.13;;;;;;;;;;5092908;28;20447;-62
2023/03/16 10:32:19;;;;;;;2.90;1.30;;;;;;;;;;5092919;28;20825;-63
2023/03/16 10:34:49;;;;;;;1.60;1.30;;;;;;;;;;5092735;28;20814;-66
2023/03/16 10:37:16;;;;;;;6.57;3.00;;;;;;;;;;5092560;28;20449;-68
2023/03/16 10:39:43;;;;;;;3.57;1.53;;;;;;;;;;5092744;28;20457;-64
2023/03/16 10:42:15;;;;;;;4.13;1.40;;;;;;;;;;5092696;28;20451;-66
2023/03/16 10:44:44;;;;;;;2.93;1.60;;;;;;;;;;5092611;28;20482;-62
2023/03/16 10:47:17;;;;;;;3.33;1.10;;;;;;;;;;5092488;28;21071;-61
2023/03/16 10:49:47;;;;;;;1.70;0.90;;;;;;;;;;5092066;28;20455;-64
2023/03/16 10:52:18;;;;;;;1.43;1.10;;;;;;;;;;5092575;28;20516;-63
2023/03/16 10:54:49;;;;;;;5.80;1.30;;;;;;;;;;5092465;28;20518;-65
2023/03/16 10:57:21;;;;;;;2.47;1.33;;;;;;;;;;5092452;28;20867;-62
2023/03/16 10:59:50;;;;;;;1.53;1.13;;;;;;;;;;5092525;28;20845;-66
2023/03/16 11:02:19;;;;;;;3.40;1.33;;;;;;;;;;5092508;28;20447;-65
2023/03/16 11:04:46;;;;;;;3.30;1.30;;;;;;;;;;5092539;28;20467;-64
2023/03/16 11:07:16;;;;;;;3.20;2.27;;;;;;;;;;5092798;28;20451;-64
2023/03/16 11:09:43;;;;;;;2.43;1.00;;;;;;;;;;5092263;28;20447;-70
2023/03/16 11:12:16;;;;;;;2.87;1.03;;;;;;;;;;5092353;28;20538;-64
2023/03/16 11:14:47;;;;;;;3.20;1.20;;;;;;;;;;5092236;28;20539;-65
2023/03/16 11:17:26;;;;;;;5.03;1.50;;;;;;;;;;5092429;28;20473;-62
2023/03/16 11:19:54;;;;;;;2.30;1.40;;;;;;;;;;5092328;28;20482;-68
2023/03/16 11:22:23;;;;;;;3.57;1.60;;;;;;;;;;5092227;28;20446;-69
2023/03/16 11:24:51;;;;;;;1.73;1.50;;;;;;;;;;5091911;28;20996;-65
2023/03/16 11:27:21;;;;;;;2.57;1.33;;;;;;;;;;5092051;28;20457;-69
2023/03/16 11:29:52;;;;;;;3.70;1.60;;;;;;;;;;5092198;28;20459;-68
2023/03/16 11:32:21;;;;;;;2.93;1.17;;;;;;;;;;5092325;28;20758;-66
2023/03/16 11:34:48;;;;;;;32.27;12.00;;;;;;;;;;5092184;28;20809;-73
2023/03/16 11:37:20;;;;;;;4.60;1.30;;;;;;;;;;5092189;28;21058;-70
2023/03/16 11:39:49;;;;;;;11.77;4.03;;;;;;;;;;5092412;28;20447;-72
2023/03/16 11:42:21;;;;;;;2.07;1.20;;;;;;;;;;5092194;28;20455;-69
2023/03/16 11:44:50;;;;;;;3.87;1.20;;;;;;;;;;5092050;28;20497;-65
2023/03/16 11:47:42;;;;;;;4.93;1.20;;;;;;;;;;5091948;28;20806;-67
2023/03/16 11:50:13;;;;;;;1.50;0.97;;;;;;;;;;5091855;28;20532;-67
2023/03/16 11:52:46;;;;;;;3.03;1.20;;;;;;;;;;5092189;28;20451;-84
2023/03/16 11:55:21;;;;;;;2.27;1.00;;;;;;;;;;5091991;28;20538;-71
2023/03/16 11:57:54;;;;;;;1.67;0.97;;;;;;;;;;5091845;28;20446;-74
2023/03/16 12:00:27;;;;;;;3.30;1.60;;;;;;;;;;5091626;28;20461;-69
2023/03/16 12:03:00;;;;;;;1.93;0.90;;;;;;;;;;5094772;28;20445;-67
2023/03/16 12:05:46;;;;;;;2.20;1.20;;;;;;;;;;5095513;28;20479;-69
2023/03/16 12:08:20;;;;;;;5.17;1.00;;;;;;;;;;5095438;28;20526;-73
2023/03/16 12:10:51;;;;;;;4.43;1.20;;;;;;;;;;5095271;28;20533;-69
2023/03/16 12:13:29;;;;;;;2.60;1.10;;;;;;;;;;5095613;28;20447;-69
2023/03/16 12:15:58;;;;;;;2.00;0.93;;;;;;;;;;5095503;28;20809;-69
2023/03/16 12:18:29;;;;;;;1.27;0.90;;;;;;;;;;5095649;28;20570;-63
2023/03/16 12:20:58;;;;;;;1.40;1.07;;;;;;;;;;5095523;28;21013;-65
2023/03/16 12:23:29;;;;;;;2.60;1.10;;;;;;;;;;5095333;28;20450;-63
2023/03/16 12:25:58;;;;;;;3.33;1.17;;;;;;;;;;5095331;28;20517;-64
2023/03/16 12:28:26;;;;;;;1.90;1.23;;;;;;;;;;5095376;28;20443;-67
2023/03/16 12:30:59;;;;;;;3.43;1.20;;;;;;;;;;5095317;28;20462;-65
2023/03/16 12:33:35;;;;;;;2.90;1.47;;;;;;;;;;5095433;28;20486;-72
2023/03/16 12:36:03;;;;;;;1.40;0.90;;;;;;;;;;5095178;28;20449;-74
2023/03/16 12:38:36;;;;;;;3.00;1.60;;;;;;;;;;5095182;28;20485;-75
2023/03/16 12:41:13;;;;;;;1.33;0.87;;;;;;;;;;5095166;28;20454;-83
2023/03/16 12:43:52;;;;;;;5.30;1.10;;;;;;;;;;5094989;28;20873;-69
2023/03/16 12:46:24;;;;;;;4.23;1.23;;;;;;;;;;5094784;28;20481;-65
2023/03/16 12:48:54;;;;;;;3.17;1.10;;;;;;;;;;5095066;28;20451;-67
2023/03/16 12:51:21;;;;;;;4.90;1.07;;;;;;;;;;5094667;28;20789;-64
2023/03/16 12:53:54;;;;;;;2.80;1.40;;;;;;;;;;5094787;28;20447;-75
2023/03/16 12:56:28;;;;;;;1.60;1.00;;;;;;;;;;5094699;28;20453;-69
2023/03/16 12:58:56;;;;;;;1.40;1.30;;;;;;;;;;5094467;28;20446;-73
2023/03/16 13:01:27;;;;;;;1.00;0.90;;;;;;;;;;5094555;28;20629;-72
2023/03/16 13:04:02;;;;;;;2.83;1.30;;;;;;;;;;5094463;28;20813;-66
2023/03/16 13:06:32;;;;;;;3.10;0.97;;;;;;;;;;5094800;28;21003;-67
2023/03/16 13:09:00;;;;;;;4.23;1.03;;;;;;;;;;5094435;28;20443;-67
2023/03/16 13:11:28;;;;;;;2.97;1.10;;;;;;;;;;5094402;28;20442;-66
2023/03/16 13:14:09;;;;;;;3.60;1.37;;;;;;;;;;5093595;28;20473;-72
2023/03/16 13:16:37;;;;;;;2.63;2.40;;;;;;;;;;5093854;28;20478;-65
2023/03/16 13:19:18;;;;;;;3.07;1.43;;;;;;;;;;5094008;28;20497;-62
2023/03/16 13:21:45;;;;;;;1.10;1.00;;;;;;;;;;5093833;28;20530;-66
2023/03/16 13:24:14;;;;;;;2.30;1.67;;;;;;;;;;5094075;28;20503;-65
2023/03/16 13:26:42;;;;;;;2.10;1.00;;;;;;;;;;5093875;28;20565;-62
2023/03/16 13:29:21;;;;;;;3.70;0.87;;;;;;;;;;5093830;28;20445;-63
2023/03/16 13:31:49;;;;;;;3.80;2.00;;;;;;;;;;5093749;28;20489;-69
2023/03/16 13:34:20;;;;;;;4.77;1.20;;;;;;;;;;5093559;28;20485;-66
2023/03/16 13:36:51;;;;;;;7.97;4.50;;;;;;;;;;5093219;28;20555;-66
2023/03/16 13:39:19;;;;;;;3.57;1.03;;;;;;;;;;5093738;28;20446;-66
2023/03/16 13:41:56;;;;;;;1.23;0.80;;;;;;;;;;5094185;28;20450;-67
2023/03/16 13:44:23;;;;;;;3.13;1.00;;;;;;;;;;5094041;28;20504;-66
2023/03/16 13:46:50;;;;;;;1.03;0.80;;;;;;;;;;5093280;28;20482;-66
2023/03/16 13:49:17;;;;;;;1.77;0.80;;;;;;;;;;5093376;28;20478;-66
2023/03/16 13:51:46;;;;;;;1.20;0.80;;;;;;;;;;5093682;28;20455;-66
2023/03/16 13:54:22;;;;;;;2.50;1.40;;;;;;;;;;5093342;28;20485;-67
2023/03/16 13:56:49;;;;;;;2.87;1.00;;;;;;;;;;5093624;28;20474;-66
2023/03/16 13:59:17;;;;;;;1.80;0.90;;;;;;;;;;5093257;28;20443;-66
2023/03/16 14:01:44;;;;;;;2.70;1.13;;;;;;;;;;5093145;28;20508;-66
2023/03/16 14:04:16;;;;;;;2.20;1.10;;;;;;;;;;5093431;28;20443;-66
2023/03/16 14:06:52;;;;;;;1.73;0.90;;;;;;;;;;5093166;28;20486;-66
2023/03/16 14:09:22;;;;;;;3.73;0.90;;;;;;;;;;5093056;28;20478;-66
2023/03/16 14:11:49;;;;;;;1.50;0.80;;;;;;;;;;5093609;28;20458;-67
2023/03/16 14:14:16;;;;;;;1.37;0.70;;;;;;;;;;5093274;28;20534;-66
2023/03/16 14:16:44;;;;;;;4.50;1.30;;;;;;;;;;5093202;28;20477;-66
2023/03/16 14:19:18;;;;;;;0.90;0.70;;;;;;;;;;5093179;28;20501;-66
2023/03/16 14:21:45;;;;;;;1.90;1.00;;;;;;;;;;5092936;28;20465;-66
2023/03/16 14:24:19;;;;;;;3.93;0.80;;;;;;;;;;5092897;28;20447;-67
2023/03/16 14:26:49;;;;;;;1.53;0.90;;;;;;;;;;5092321;28;20576;-66
2023/03/16 14:29:20;;;;;;;1.07;0.80;;;;;;;;;;5093099;28;20512;-66
2023/03/16 14:31:47;;;;;;;1.87;0.67;;;;;;;;;;5092987;28;20447;-66
2023/03/16 14:34:22;;;;;;;2.80;0.90;;;;;;;;;;5093071;28;20451;-66
2023/03/16 14:36:49;;;;;;;3.00;0.80;;;;;;;;;;5093102;28;20549;-66
2023/03/16 14:39:17;;;;;;;1.70;0.90;;;;;;;;;;5092562;28;20954;-66
2023/03/16 14:41:44;;;;;;;1.27;0.83;;;;;;;;;;5093008;28;20538;-67
2023/03/16 14:44:19;;;;;;;2.60;1.00;;;;;;;;;;5093046;28;20511;-67
2023/03/16 14:46:46;;;;;;;1.57;0.93;;;;;;;;;;5092726;28;20480;-66
2023/03/16 14:49:19;;;;;;;2.70;1.10;;;;;;;;;;5092724;28;20447;-67
2023/03/16 14:51:48;;;;;;;1.13;0.80;;;;;;;;;;5092908;28;20853;-67